Terminal Aerodrome Forecast
Issued by NWS Binghamton, NY

Home | Current Version | Previous Version | Text Only | Print | Product List | Glossary On
Versions: 1 2 3 4 5 6 7 8 9 10 11 12 13 14 15 16 17
058
FTUS41 KBGM 252335
TAFAVP
TAF
KAVP 252335Z 2600/2624 21005KT P6SM SCT090
     FM260700 21005KT P6SM BKN060
     FM261100 27005KT P6SM BKN025
     FM261500 32007KT P6SM SCT050=

USA.gov is the U.S. government's official web portal to all federal, state and local government web resources and services.